There are multiple Weather-warnings   Click here for more information


Meteo18 Weather Cam more information Meteo18 Weather Cam


warning for Thunderstorms more information blitzortung!


Rain radar more information rain snow radar


Visit our other weather sites:

Template documentation
and downloads

And another site



Weather Underground History page Text

Daily Summary for February 27, 2017 Units:  Both    English   Metric
« Previous Day
Next Day »
Daily Weekly Monthly Yearly Custom
  High: Low: Average:
Temperature: 56.1 °F /  13.4 °C 41.9 °F /  5.5 °C 49.5 °F /  9.7 °C
Dew Point: 46.9 °F /  8.3 °C 37.9 °F /  3.3 °C 44.1 °F /  6.7 °C
Humidity: 91 % 66 % 82 %
Wind Speed: 31 mph /  49.9 km/h - 12 mph /  19.3 km/h
Wind Gust: 44 mph /  70.8 km/h - -
Wind:- - SW
Pressure: 30 in /  1014.8 hPa 29.5 in /  1000.2 hPa -
Precipitation: 0.25 in /  6.3 mm    
Historical Graphs
 
 
Tabular Data for February 27, 2017
Time Temperature Dew Point Pressure Wind Wind Speed Wind Gust Humidity Rainfall Rate (Hourly)
00:02 48.9 °F /  9.4 °C 45.9 °F /  7.7 °C 30 in /  1014.8 hPa SSW 7 mph /  11.3 km/h 9 mph /  14.5 km/h 89 % 0 in /  0.0 mm
00:12 48.9 °F /  9.4 °C 45.9 °F /  7.7 °C 30 in /  1014.8 hPa SSW 5 mph /  8.0 km/h 9 mph /  14.5 km/h 89 % 0 in /  0.0 mm
00:17 48.9 °F /  9.4 °C 45.9 °F /  7.7 °C 30 in /  1014.8 hPa SW 4 mph /  6.4 km/h 10 mph /  16.1 km/h 89 % 0 in /  0.0 mm
00:22 48.9 °F /  9.4 °C 45.9 °F /  7.7 °C 30 in /  1014.8 hPa SSW 4 mph /  6.4 km/h 10 mph /  16.1 km/h 89 % 0 in /  0.0 mm
00:32 48.9 °F /  9.4 °C 45.9 °F /  7.7 °C 30 in /  1014.8 hPa SW 8 mph /  12.9 km/h 9 mph /  14.5 km/h 89 % 0 in /  0.0 mm
00:37 49.1 °F /  9.5 °C 45.7 °F /  7.6 °C 30 in /  1014.8 hPa SSW 5 mph /  8.0 km/h 9 mph /  14.5 km/h 88 % 0 in /  0.0 mm
00:42 49.3 °F /  9.6 °C 45.9 °F /  7.7 °C 30 in /  1014.8 hPa SW 4 mph /  6.4 km/h 10 mph /  16.1 km/h 88 % 0 in /  0.0 mm
00:47 49.3 °F /  9.6 °C 45.9 °F /  7.7 °C 30 in /  1014.4 hPa SSW 7 mph /  11.3 km/h 10 mph /  16.1 km/h 88 % 0 in /  0.0 mm
00:52 49.5 °F /  9.7 °C 46 °F /  7.8 °C 30 in /  1014.4 hPa SW 5 mph /  8.0 km/h 12 mph /  19.3 km/h 88 % 0 in /  0.0 mm
00:57 49.3 °F /  9.6 °C 45.9 °F /  7.7 °C 30 in /  1014.4 hPa SSW 6 mph /  9.7 km/h 12 mph /  19.3 km/h 88 % 0 in /  0.0 mm
01:02 49.3 °F /  9.6 °C 45.9 °F /  7.7 °C 30 in /  1014.4 hPa SW 4 mph /  6.4 km/h 11 mph /  17.7 km/h 88 % 0 in /  0.0 mm
01:12 49.3 °F /  9.6 °C 45.9 °F /  7.7 °C 30 in /  1014.4 hPa SW 7 mph /  11.3 km/h 10 mph /  16.1 km/h 88 % 0 in /  0.0 mm
01:17 49.3 °F /  9.6 °C 45.9 °F /  7.7 °C 30 in /  1014.4 hPa SSW 6 mph /  9.7 km/h 10 mph /  16.1 km/h 88 % 0 in /  0.0 mm
01:22 49.1 °F /  9.5 °C 45.7 °F /  7.6 °C 30 in /  1014.4 hPa SSW 7 mph /  11.3 km/h 10 mph /  16.1 km/h 88 % 0 in /  0.0 mm
01:32 49.1 °F /  9.5 °C 45.7 °F /  7.6 °C 29.9 in /  1014.1 hPa SSW 6 mph /  9.7 km/h 10 mph /  16.1 km/h 88 % 0 in /  0.0 mm
01:37 49.1 °F /  9.5 °C 45.7 °F /  7.6 °C 29.9 in /  1014.1 hPa SW 4 mph /  6.4 km/h 12 mph /  19.3 km/h 88 % 0 in /  0.0 mm
01:42 49.1 °F /  9.5 °C 45.7 °F /  7.6 °C 29.9 in /  1014.1 hPa SW 6 mph /  9.7 km/h 12 mph /  19.3 km/h 88 % 0 in /  0.0 mm
01:47 49.1 °F /  9.5 °C 45.7 °F /  7.6 °C 29.9 in /  1014.1 hPa SSW 5 mph /  8.0 km/h 12 mph /  19.3 km/h 88 % 0 in /  0.0 mm
01:52 49.1 °F /  9.5 °C 45.7 °F /  7.6 °C 29.9 in /  1013.8 hPa South 5 mph /  8.0 km/h 13 mph /  20.9 km/h 88 % 0 in /  0.0 mm
01:57 48.9 °F /  9.4 °C 45.9 °F /  7.7 °C 29.9 in /  1014.1 hPa SSW 4 mph /  6.4 km/h 13 mph /  20.9 km/h 89 % 0 in /  0.0 mm
02:02 48.9 °F /  9.4 °C 45.9 °F /  7.7 °C 29.9 in /  1013.8 hPa SW 9 mph /  14.5 km/h 13 mph /  20.9 km/h 89 % 0 in /  0.0 mm
02:12 48.7 °F /  9.3 °C 45.7 °F /  7.6 °C 29.9 in /  1013.8 hPa SSW 3 mph /  4.8 km/h 10 mph /  16.1 km/h 89 % 0 in /  0.0 mm
02:17 48.7 °F /  9.3 °C 45.7 °F /  7.6 °C 29.9 in /  1013.8 hPa SSW 11 mph /  17.7 km/h 11 mph /  17.7 km/h 89 % 0 in /  0.0 mm
02:22 48.7 °F /  9.3 °C 45.7 °F /  7.6 °C 29.9 in /  1013.8 hPa SSW 4 mph /  6.4 km/h 10 mph /  16.1 km/h 89 % 0 in /  0.0 mm
02:32 48.7 °F /  9.3 °C 45.3 °F /  7.4 °C 29.9 in /  1013.4 hPa SW 11 mph /  17.7 km/h 12 mph /  19.3 km/h 88 % 0 in /  0.0 mm
02:42 48.9 °F /  9.4 °C 45.5 °F /  7.5 °C 29.9 in /  1013.4 hPa South 8 mph /  12.9 km/h 13 mph /  20.9 km/h 88 % 0 in /  0.0 mm
02:47 48.9 °F /  9.4 °C 45.1 °F /  7.3 °C 29.9 in /  1013.4 hPa South 5 mph /  8.0 km/h 13 mph /  20.9 km/h 87 % 0 in /  0.0 mm
02:52 48.9 °F /  9.4 °C 45.1 °F /  7.3 °C 29.9 in /  1013.1 hPa SSW 7 mph /  11.3 km/h 13 mph /  20.9 km/h 87 % 0 in /  0.0 mm
03:02 48.9 °F /  9.4 °C 45.5 °F /  7.5 °C 29.9 in /  1013.1 hPa SW 5 mph /  8.0 km/h 13 mph /  20.9 km/h 88 % 0 in /  0.0 mm
03:12 48.7 °F /  9.3 °C 45.3 °F /  7.4 °C 29.9 in /  1012.8 hPa SW 4 mph /  6.4 km/h 10 mph /  16.1 km/h 88 % 0 in /  0.0 mm
03:17 48.7 °F /  9.3 °C 45.3 °F /  7.4 °C 29.9 in /  1012.8 hPa SW 7 mph /  11.3 km/h 10 mph /  16.1 km/h 88 % 0 in /  0.0 mm
03:22 48.7 °F /  9.3 °C 45.3 °F /  7.4 °C 29.9 in /  1012.8 hPa SSW 8 mph /  12.9 km/h 10 mph /  16.1 km/h 88 % 0 in /  0.0 mm
03:27 48.7 °F /  9.3 °C 45.3 °F /  7.4 °C 29.9 in /  1012.8 hPa SSW 6 mph /  9.7 km/h 11 mph /  17.7 km/h 88 % 0 in /  0.0 mm
03:32 48.9 °F /  9.4 °C 45.5 °F /  7.5 °C 29.9 in /  1012.4 hPa SW 5 mph /  8.0 km/h 11 mph /  17.7 km/h 88 % 0 in /  0.0 mm
03:42 48.9 °F /  9.4 °C 45.1 °F /  7.3 °C 29.9 in /  1012.4 hPa SW 8 mph /  12.9 km/h 14 mph /  22.5 km/h 87 % 0 in /  0.0 mm
03:47 48.7 °F /  9.3 °C 45 °F /  7.2 °C 29.9 in /  1012.1 hPa SSW 9 mph /  14.5 km/h 14 mph /  22.5 km/h 87 % 0 in /  0.0 mm
03:52 48.7 °F /  9.3 °C 45.3 °F /  7.4 °C 29.9 in /  1012.1 hPa SSW 6 mph /  9.7 km/h 14 mph /  22.5 km/h 88 % 0 in /  0.0 mm
03:57 48.7 °F /  9.3 °C 45.3 °F /  7.4 °C 29.9 in /  1012.1 hPa SW 7 mph /  11.3 km/h 14 mph /  22.5 km/h 88 % 0 in /  0.0 mm
04:02 48.7 °F /  9.3 °C 45.3 °F /  7.4 °C 29.9 in /  1012.1 hPa SSW 8 mph /  12.9 km/h 13 mph /  20.9 km/h 88 % 0 in /  0.0 mm
04:12 48.7 °F /  9.3 °C 45.3 °F /  7.4 °C 29.9 in /  1011.7 hPa SSW 11 mph /  17.7 km/h 11 mph /  17.7 km/h 88 % 0 in /  0.0 mm
04:17 48.6 °F /  9.2 °C 45.1 °F /  7.3 °C 29.9 in /  1011.7 hPa SSW 12 mph /  19.3 km/h 13 mph /  20.9 km/h 88 % 0 in /  0.0 mm
04:22 48.7 °F /  9.3 °C 45.3 °F /  7.4 °C 29.9 in /  1011.7 hPa SW 6 mph /  9.7 km/h 13 mph /  20.9 km/h 88 % 0 in /  0.0 mm
04:27 48.6 °F /  9.2 °C 45.1 °F /  7.3 °C 29.9 in /  1011.7 hPa SSW 8 mph /  12.9 km/h 15 mph /  24.1 km/h 88 % 0 in /  0.0 mm
04:32 48.6 °F /  9.2 °C 45.1 °F /  7.3 °C 29.9 in /  1011.7 hPa SSW 10 mph /  16.1 km/h 15 mph /  24.1 km/h 88 % 0 in /  0.0 mm
04:42 48.7 °F /  9.3 °C 45.3 °F /  7.4 °C 29.9 in /  1011.7 hPa SSW 6 mph /  9.7 km/h 13 mph /  20.9 km/h 88 % 0 in /  0.0 mm
04:47 48.7 °F /  9.3 °C 45 °F /  7.2 °C 29.9 in /  1011.7 hPa SSW 10 mph /  16.1 km/h 13 mph /  20.9 km/h 87 % 0 in /  0.0 mm
04:52 48.7 °F /  9.3 °C 45 °F /  7.2 °C 29.9 in /  1011.4 hPa South 8 mph /  12.9 km/h 14 mph /  22.5 km/h 87 % 0 in /  0.0 mm
04:57 48.9 °F /  9.4 °C 45 °F /  7.2 °C 29.9 in /  1011.4 hPa South 7 mph /  11.3 km/h 16 mph /  25.7 km/h 86 % 0 in /  0.0 mm
05:02 49.1 °F /  9.5 °C 45.1 °F /  7.3 °C 29.9 in /  1011.4 hPa SW 8 mph /  12.9 km/h 16 mph /  25.7 km/h 86 % 0 in /  0.0 mm
05:12 49.3 °F /  9.6 °C 45 °F /  7.2 °C 29.9 in /  1011.4 hPa SW 9 mph /  14.5 km/h 17 mph /  27.4 km/h 85 % 0 in /  0.0 mm
05:17 49.3 °F /  9.6 °C 45 °F /  7.2 °C 29.9 in /  1011.4 hPa South 5 mph /  8.0 km/h 17 mph /  27.4 km/h 85 % 0 in /  0.0 mm
05:22 48.9 °F /  9.4 °C 45 °F /  7.2 °C 29.9 in /  1011.1 hPa SSW 8 mph /  12.9 km/h 17 mph /  27.4 km/h 86 % 0 in /  0.0 mm
05:27 48.9 °F /  9.4 °C 45 °F /  7.2 °C 29.9 in /  1011.1 hPa South 9 mph /  14.5 km/h 15 mph /  24.1 km/h 86 % 0 in /  0.0 mm
05:32 48.7 °F /  9.3 °C 44.8 °F /  7.1 °C 29.9 in /  1011.1 hPa South 10 mph /  16.1 km/h 15 mph /  24.1 km/h 86 % 0 in /  0.0 mm
05:37 48.7 °F /  9.3 °C 44.8 °F /  7.1 °C 29.9 in /  1011.1 hPa SSW 14 mph /  22.5 km/h 15 mph /  24.1 km/h 86 % 0 in /  0.0 mm
05:42 48.7 °F /  9.3 °C 44.8 °F /  7.1 °C 29.9 in /  1011.1 hPa SW 11 mph /  17.7 km/h 15 mph /  24.1 km/h 86 % 0 in /  0.0 mm
05:52 48.7 °F /  9.3 °C 44.8 °F /  7.1 °C 29.9 in /  1011.1 hPa SSW 10 mph /  16.1 km/h 16 mph /  25.7 km/h 86 % 0 in /  0.0 mm
05:57 48.7 °F /  9.3 °C 44.8 °F /  7.1 °C 29.9 in /  1011.1 hPa SSW 5 mph /  8.0 km/h 17 mph /  27.4 km/h 86 % 0 in /  0.0 mm
06:02 48.7 °F /  9.3 °C 44.8 °F /  7.1 °C 29.9 in /  1011.1 hPa SW 7 mph /  11.3 km/h 17 mph /  27.4 km/h 86 % 0 in /  0.0 mm
06:12 48.7 °F /  9.3 °C 44.8 °F /  7.1 °C 29.8 in /  1010.4 hPa SSW 7 mph /  11.3 km/h 17 mph /  27.4 km/h 86 % 0 in /  0.0 mm
06:17 48.7 °F /  9.3 °C 44.4 °F /  6.9 °C 29.8 in /  1010.4 hPa SW 13 mph /  20.9 km/h 15 mph /  24.1 km/h 85 % 0 in /  0.0 mm
06:22 48.9 °F /  9.4 °C 44.6 °F /  7.0 °C 29.8 in /  1010.4 hPa SSW 7 mph /  11.3 km/h 15 mph /  24.1 km/h 85 % 0 in /  0.0 mm
06:27 48.7 °F /  9.3 °C 44.4 °F /  6.9 °C 29.8 in /  1010.4 hPa SSW 12 mph /  19.3 km/h 15 mph /  24.1 km/h 85 % 0 in /  0.0 mm
06:32 48.7 °F /  9.3 °C 44.4 °F /  6.9 °C 29.8 in /  1010.4 hPa South 5 mph /  8.0 km/h 15 mph /  24.1 km/h 85 % 0 in /  0.0 mm
06:42 48.7 °F /  9.3 °C 44.4 °F /  6.9 °C 29.8 in /  1010.4 hPa SSW 8 mph /  12.9 km/h 15 mph /  24.1 km/h 85 % 0 in /  0.0 mm
06:52 48.6 °F /  9.2 °C 44.2 °F /  6.8 °C 29.8 in /  1010.4 hPa SW 6 mph /  9.7 km/h 14 mph /  22.5 km/h 85 % 0 in /  0.0 mm
06:57 48.6 °F /  9.2 °C 44.2 °F /  6.8 °C 29.8 in /  1010.4 hPa SSW 8 mph /  12.9 km/h 14 mph /  22.5 km/h 85 % 0 in /  0.0 mm
07:02 48.6 °F /  9.2 °C 44.2 °F /  6.8 °C 29.8 in /  1010.4 hPa SSW 9 mph /  14.5 km/h 13 mph /  20.9 km/h 85 % 0 in /  0.0 mm
07:12 48.6 °F /  9.2 °C 44.2 °F /  6.8 °C 29.8 in /  1010.0 hPa SSW 8 mph /  12.9 km/h 13 mph /  20.9 km/h 85 % 0 in /  0.0 mm
07:17 48.6 °F /  9.2 °C 44.2 °F /  6.8 °C 29.8 in /  1010.0 hPa South 8 mph /  12.9 km/h 13 mph /  20.9 km/h 85 % 0 in /  0.0 mm
07:22 48.7 °F /  9.3 °C 44.4 °F /  6.9 °C 29.8 in /  1010.0 hPa SSW 10 mph /  16.1 km/h 13 mph /  20.9 km/h 85 % 0 in /  0.0 mm
07:27 48.6 °F /  9.2 °C 44.2 °F /  6.8 °C 29.8 in /  1009.7 hPa SSW 8 mph /  12.9 km/h 13 mph /  20.9 km/h 85 % 0 in /  0.0 mm
07:32 48.6 °F /  9.2 °C 44.2 °F /  6.8 °C 29.8 in /  1009.7 hPa SSW 6 mph /  9.7 km/h 13 mph /  20.9 km/h 85 % 0 in /  0.0 mm
07:42 48.6 °F /  9.2 °C 44.2 °F /  6.8 °C 29.8 in /  1009.7 hPa SSW 5 mph /  8.0 km/h 13 mph /  20.9 km/h 85 % 0 in /  0.0 mm
07:47 48.6 °F /  9.2 °C 43.9 °F /  6.6 °C 29.8 in /  1009.7 hPa South 4 mph /  6.4 km/h 10 mph /  16.1 km/h 84 % 0 in /  0.0 mm
07:52 48.6 °F /  9.2 °C 44.2 °F /  6.8 °C 29.8 in /  1009.4 hPa South 6 mph /  9.7 km/h 10 mph /  16.1 km/h 85 % 0 in /  0.0 mm
07:57 48.4 °F /  9.1 °C 44.1 °F /  6.7 °C 29.8 in /  1009.4 hPa South 7 mph /  11.3 km/h 9 mph /  14.5 km/h 85 % 0 in /  0.0 mm
08:02 48.4 °F /  9.1 °C 44.1 °F /  6.7 °C 29.8 in /  1009.4 hPa SSW 3 mph /  4.8 km/h 9 mph /  14.5 km/h 85 % 0 in /  0.0 mm
08:12 48.6 °F /  9.2 °C 43.9 °F /  6.6 °C 29.8 in /  1009.4 hPa SSW 5 mph /  8.0 km/h 10 mph /  16.1 km/h 84 % 0 in /  0.0 mm
08:17 48.7 °F /  9.3 °C 44.1 °F /  6.7 °C 29.8 in /  1009.4 hPa SSW 5 mph /  8.0 km/h 12 mph /  19.3 km/h 84 % 0 in /  0.0 mm
08:22 48.7 °F /  9.3 °C 43.9 °F /  6.6 °C 29.8 in /  1009.0 hPa SW 6 mph /  9.7 km/h 12 mph /  19.3 km/h 83 % 0 in /  0.0 mm
08:27 48.7 °F /  9.3 °C 43.9 °F /  6.6 °C 29.8 in /  1009.0 hPa SSW 8 mph /  12.9 km/h 13 mph /  20.9 km/h 83 % 0 in /  0.0 mm
08:32 48.9 °F /  9.4 °C 44.1 °F /  6.7 °C 29.8 in /  1008.7 hPa SSW 6 mph /  9.7 km/h 13 mph /  20.9 km/h 83 % 0 in /  0.0 mm
08:37 49.1 °F /  9.5 °C 43.9 °F /  6.6 °C 29.8 in /  1008.7 hPa SSW 9 mph /  14.5 km/h 16 mph /  25.7 km/h 82 % 0 in /  0.0 mm
08:42 49.3 °F /  9.6 °C 44.1 °F /  6.7 °C 29.8 in /  1008.7 hPa SSW 12 mph /  19.3 km/h 16 mph /  25.7 km/h 82 % 0 in /  0.0 mm
08:47 49.6 °F /  9.8 °C 44.1 °F /  6.7 °C 29.8 in /  1008.7 hPa South 11 mph /  17.7 km/h 16 mph /  25.7 km/h 81 % 0 in /  0.0 mm
08:52 49.8 °F /  9.9 °C 44.2 °F /  6.8 °C 29.8 in /  1008.7 hPa SW 8 mph /  12.9 km/h 16 mph /  25.7 km/h 81 % 0 in /  0.0 mm
09:02 50.2 °F /  10.1 °C 44.2 °F /  6.8 °C 29.8 in /  1008.4 hPa SSW 11 mph /  17.7 km/h 16 mph /  25.7 km/h 80 % 0 in /  0.0 mm
09:12 50.4 °F /  10.2 °C 43.7 °F /  6.5 °C 29.8 in /  1008.4 hPa SSW 8 mph /  12.9 km/h 18 mph /  29.0 km/h 78 % 0 in /  0.0 mm
09:17 50.4 °F /  10.2 °C 43.7 °F /  6.5 °C 29.8 in /  1008.4 hPa SSE 14 mph /  22.5 km/h 18 mph /  29.0 km/h 78 % 0 in /  0.0 mm
09:22 50.4 °F /  10.2 °C 43.3 °F /  6.3 °C 29.8 in /  1008.4 hPa South 11 mph /  17.7 km/h 18 mph /  29.0 km/h 77 % 0 in /  0.0 mm
09:27 50.5 °F /  10.3 °C 43.3 °F /  6.3 °C 29.8 in /  1008.0 hPa South 14 mph /  22.5 km/h 18 mph /  29.0 km/h 76 % 0 in /  0.0 mm
09:32 50.5 °F /  10.3 °C 43.5 °F /  6.4 °C 29.8 in /  1008.0 hPa SSW 4 mph /  6.4 km/h 18 mph /  29.0 km/h 77 % 0 in /  0.0 mm
09:37 50.7 °F /  10.4 °C 43.7 °F /  6.5 °C 29.8 in /  1008.0 hPa SSW 8 mph /  12.9 km/h 18 mph /  29.0 km/h 77 % 0 in /  0.0 mm
09:42 50.9 °F /  10.5 °C 43.5 °F /  6.4 °C 29.8 in /  1008.0 hPa South 7 mph /  11.3 km/h 18 mph /  29.0 km/h 76 % 0 in /  0.0 mm
09:47 50.9 °F /  10.5 °C 43.5 °F /  6.4 °C 29.8 in /  1008.0 hPa SSW 8 mph /  12.9 km/h 15 mph /  24.1 km/h 76 % 0 in /  0.0 mm
09:52 51.1 °F /  10.6 °C 43.7 °F /  6.5 °C 29.8 in /  1008.0 hPa SSW 5 mph /  8.0 km/h 15 mph /  24.1 km/h 76 % 0 in /  0.0 mm
09:57 51.1 °F /  10.6 °C 43.7 °F /  6.5 °C 29.8 in /  1008.0 hPa South 8 mph /  12.9 km/h 15 mph /  24.1 km/h 76 % 0 in /  0.0 mm
10:02 51.3 °F /  10.7 °C 43.9 °F /  6.6 °C 29.8 in /  1007.7 hPa SSW 9 mph /  14.5 km/h 15 mph /  24.1 km/h 76 % 0 in /  0.0 mm
10:12 51.3 °F /  10.7 °C 43.9 °F /  6.6 °C 29.7 in /  1007.3 hPa SSE 10 mph /  16.1 km/h 15 mph /  24.1 km/h 76 % 0 in /  0.0 mm
10:17 51.3 °F /  10.7 °C 43.5 °F /  6.4 °C 29.7 in /  1007.3 hPa SSE 5 mph /  8.0 km/h 17 mph /  27.4 km/h 75 % 0 in /  0.0 mm
10:22 51.3 °F /  10.7 °C 43.3 °F /  6.3 °C 29.7 in /  1007.3 hPa SSW 12 mph /  19.3 km/h 17 mph /  27.4 km/h 74 % 0 in /  0.0 mm
10:27 51.3 °F /  10.7 °C 43.5 °F /  6.4 °C 29.7 in /  1007.0 hPa SSW 6 mph /  9.7 km/h 19 mph /  30.6 km/h 75 % 0 in /  0.0 mm
10:32 51.3 °F /  10.7 °C 43.5 °F /  6.4 °C 29.7 in /  1007.0 hPa SE 16 mph /  25.7 km/h 19 mph /  30.6 km/h 75 % 0 in /  0.0 mm
10:42 51.6 °F /  10.9 °C 43.9 °F /  6.6 °C 29.7 in /  1006.7 hPa SE 7 mph /  11.3 km/h 19 mph /  30.6 km/h 75 % 0 in /  0.0 mm
10:47 51.6 °F /  10.9 °C 43.9 °F /  6.6 °C 29.7 in /  1007.0 hPa SSW 12 mph /  19.3 km/h 22 mph /  35.4 km/h 75 % 0 in /  0.0 mm
10:52 51.6 °F /  10.9 °C 43.9 °F /  6.6 °C 29.7 in /  1006.7 hPa South 10 mph /  16.1 km/h 22 mph /  35.4 km/h 75 % 0 in /  0.0 mm
11:02 51.8 °F /  11.0 °C 44.1 °F /  6.7 °C 29.7 in /  1006.3 hPa South 8 mph /  12.9 km/h 19 mph /  30.6 km/h 75 % 0 in /  0.0 mm
11:12 52 °F /  11.1 °C 44.2 °F /  6.8 °C 29.7 in /  1006.0 hPa SSW 12 mph /  19.3 km/h 19 mph /  30.6 km/h 75 % 0 in /  0.0 mm
11:17 52 °F /  11.1 °C 44.2 °F /  6.8 °C 29.7 in /  1006.0 hPa SSW 11 mph /  17.7 km/h 22 mph /  35.4 km/h 75 % 0 in /  0.0 mm
11:22 52.2 °F /  11.2 °C 44.8 °F /  7.1 °C 29.7 in /  1006.0 hPa SSE 16 mph /  25.7 km/h 22 mph /  35.4 km/h 76 % 0 in /  0.0 mm
11:27 52.2 °F /  11.2 °C 44.8 °F /  7.1 °C 29.7 in /  1005.6 hPa SSE 10 mph /  16.1 km/h 24 mph /  38.6 km/h 76 % 0 in /  0.0 mm
11:32 52.3 °F /  11.3 °C 45 °F /  7.2 °C 29.7 in /  1005.6 hPa South 9 mph /  14.5 km/h 24 mph /  38.6 km/h 76 % 0 in /  0.0 mm
11:42 53.4 °F /  11.9 °C 45.3 °F /  7.4 °C 29.7 in /  1005.3 hPa South 19 mph /  30.6 km/h 24 mph /  38.6 km/h 74 % 0 in /  0.0 mm
11:47 53.8 °F /  12.1 °C 46 °F /  7.8 °C 29.7 in /  1005.3 hPa SSW 13 mph /  20.9 km/h 22 mph /  35.4 km/h 75 % 0 in /  0.0 mm
11:52 54 °F /  12.2 °C 45.9 °F /  7.7 °C 29.7 in /  1005.0 hPa SSW 9 mph /  14.5 km/h 22 mph /  35.4 km/h 74 % 0 in /  0.0 mm
11:57 54 °F /  12.2 °C 45.9 °F /  7.7 °C 29.7 in /  1005.0 hPa SSW 16 mph /  25.7 km/h 27 mph /  43.4 km/h 74 % 0 in /  0.0 mm
12:02 54.1 °F /  12.3 °C 46 °F /  7.8 °C 29.7 in /  1005.0 hPa SW 17 mph /  27.4 km/h 27 mph /  43.4 km/h 74 % 0 in /  0.0 mm
12:07 54.1 °F /  12.3 °C 45.7 °F /  7.6 °C 29.7 in /  1005.0 hPa SSW 23 mph /  37.0 km/h 25 mph /  40.2 km/h 73 % 0 in /  0.0 mm
12:12 54.3 °F /  12.4 °C 45.9 °F /  7.7 °C 29.7 in /  1005.0 hPa SSW 15 mph /  24.1 km/h 25 mph /  40.2 km/h 73 % 0 in /  0.0 mm
12:17 54.1 °F /  12.3 °C 45.7 °F /  7.6 °C 29.7 in /  1005.0 hPa South 21 mph /  33.8 km/h 26 mph /  41.8 km/h 73 % 0 in /  0.0 mm
12:22 54 °F /  12.2 °C 46.2 °F /  7.9 °C 29.7 in /  1005.0 hPa SSW 14 mph /  22.5 km/h 26 mph /  41.8 km/h 75 % 0 in /  0.0 mm
12:32 53.6 °F /  12.0 °C 45.9 °F /  7.7 °C 29.7 in /  1005.0 hPa SSW 14 mph /  22.5 km/h 29 mph /  46.7 km/h 75 % 0 in /  0.0 mm
12:37 53.8 °F /  12.1 °C 46 °F /  7.8 °C 29.7 in /  1004.6 hPa SSW 11 mph /  17.7 km/h 23 mph /  37.0 km/h 75 % 0 in /  0.0 mm
12:42 53.8 °F /  12.1 °C 46.4 °F /  8.0 °C 29.7 in /  1004.6 hPa SSW 18 mph /  29.0 km/h 23 mph /  37.0 km/h 76 % 0 in /  0.0 mm
12:52 54 °F /  12.2 °C 46.2 °F /  7.9 °C 29.7 in /  1004.3 hPa SSW 19 mph /  30.6 km/h 24 mph /  38.6 km/h 75 % 0 in /  0.0 mm
13:02 54.3 °F /  12.4 °C 46.2 °F /  7.9 °C 29.6 in /  1003.9 hPa SW 18 mph /  29.0 km/h 24 mph /  38.6 km/h 74 % 0 in /  0.0 mm
13:12 54.9 °F /  12.7 °C 46.8 °F /  8.2 °C 29.6 in /  1003.6 hPa SW 19 mph /  30.6 km/h 24 mph /  38.6 km/h 74 % 0 in /  0.0 mm
13:17 55 °F /  12.8 °C 46.9 °F /  8.3 °C 29.6 in /  1003.6 hPa SSW 21 mph /  33.8 km/h 24 mph /  38.6 km/h 74 % 0 in /  0.0 mm
13:22 55.4 °F /  13.0 °C 46.9 °F /  8.3 °C 29.6 in /  1003.6 hPa SSW 15 mph /  24.1 km/h 24 mph /  38.6 km/h 73 % 0 in /  0.0 mm
13:27 55.6 °F /  13.1 °C 46.4 °F /  8.0 °C 29.6 in /  1003.3 hPa SW 19 mph /  30.6 km/h 24 mph /  38.6 km/h 71 % 0 in /  0.0 mm
13:32 55.9 °F /  13.3 °C 46.2 °F /  7.9 °C 29.6 in /  1002.9 hPa SW 25 mph /  40.2 km/h 28 mph /  45.1 km/h 70 % 0 in /  0.0 mm
13:37 55.9 °F /  13.3 °C 46.2 °F /  7.9 °C 29.6 in /  1002.9 hPa SW 24 mph /  38.6 km/h 32 mph /  51.5 km/h 70 % 0 in /  0.0 mm
13:42 56.1 °F /  13.4 °C 45.7 °F /  7.6 °C 29.6 in /  1002.9 hPa SW 22 mph /  35.4 km/h 32 mph /  51.5 km/h 68 % 0 in /  0.0 mm
13:47 55.9 °F /  13.3 °C 45.5 °F /  7.5 °C 29.6 in /  1002.9 hPa SW 20 mph /  32.2 km/h 32 mph /  51.5 km/h 68 % 0 in /  0.0 mm
13:52 55.9 °F /  13.3 °C 45.1 °F /  7.3 °C 29.6 in /  1002.9 hPa SW 19 mph /  30.6 km/h 32 mph /  51.5 km/h 67 % 0 in /  0.0 mm
13:57 55.9 °F /  13.3 °C 45.1 °F /  7.3 °C 29.6 in /  1002.6 hPa SW 24 mph /  38.6 km/h 32 mph /  51.5 km/h 67 % 0 in /  0.0 mm
14:02 55.9 °F /  13.3 °C 45.1 °F /  7.3 °C 29.6 in /  1002.6 hPa SW 27 mph /  43.4 km/h 32 mph /  51.5 km/h 67 % 0 in /  0.0 mm
14:12 55.9 °F /  13.3 °C 45.1 °F /  7.3 °C 29.6 in /  1002.3 hPa SW 23 mph /  37.0 km/h 31 mph /  49.9 km/h 67 % 0 in /  0.0 mm
14:17 55.9 °F /  13.3 °C 45.5 °F /  7.5 °C 29.6 in /  1002.3 hPa SSW 15 mph /  24.1 km/h 31 mph /  49.9 km/h 68 % 0 in /  0.0 mm
14:22 56.1 °F /  13.4 °C 45.3 °F /  7.4 °C 29.6 in /  1002.3 hPa SW 20 mph /  32.2 km/h 33 mph /  53.1 km/h 67 % 0 in /  0.0 mm
14:32 56.1 °F /  13.4 °C 45 °F /  7.2 °C 29.6 in /  1001.9 hPa SW 19 mph /  30.6 km/h 33 mph /  53.1 km/h 66 % 0 in /  0.0 mm
14:42 56.1 °F /  13.4 °C 45.3 °F /  7.4 °C 29.6 in /  1001.9 hPa SSW 19 mph /  30.6 km/h 32 mph /  51.5 km/h 67 % 0 in /  0.0 mm
14:47 55.9 °F /  13.3 °C 45.5 °F /  7.5 °C 29.6 in /  1001.9 hPa SW 21 mph /  33.8 km/h 32 mph /  51.5 km/h 68 % 0 in /  0.0 mm
14:52 55.9 °F /  13.3 °C 45.5 °F /  7.5 °C 29.6 in /  1001.9 hPa SW 22 mph /  35.4 km/h 32 mph /  51.5 km/h 68 % 0 in /  0.0 mm
14:57 55.8 °F /  13.2 °C 45 °F /  7.2 °C 29.6 in /  1001.9 hPa SW 19 mph /  30.6 km/h 32 mph /  51.5 km/h 67 % 0 in /  0.0 mm
15:02 55.8 °F /  13.2 °C 45 °F /  7.2 °C 29.6 in /  1001.9 hPa SSW 18 mph /  29.0 km/h 26 mph /  41.8 km/h 67 % 0 in /  0.0 mm
15:12 55.8 °F /  13.2 °C 45.3 °F /  7.4 °C 29.6 in /  1001.6 hPa SW 26 mph /  41.8 km/h 37 mph /  59.5 km/h 68 % 0 in /  0.0 mm
15:17 55.8 °F /  13.2 °C 45.3 °F /  7.4 °C 29.6 in /  1001.6 hPa SW 15 mph /  24.1 km/h 37 mph /  59.5 km/h 68 % 0 in /  0.0 mm
15:22 55.8 °F /  13.2 °C 45.3 °F /  7.4 °C 29.6 in /  1001.6 hPa SW 24 mph /  38.6 km/h 36 mph /  57.9 km/h 68 % 0 in /  0.0 mm
15:32 55.8 °F /  13.2 °C 45.3 °F /  7.4 °C 29.6 in /  1001.2 hPa SW 28 mph /  45.1 km/h 36 mph /  57.9 km/h 68 % 0 in /  0.0 mm
15:37 55.6 °F /  13.1 °C 45.5 °F /  7.5 °C 29.6 in /  1001.2 hPa SSW 15 mph /  24.1 km/h 35 mph /  56.3 km/h 69 % 0 in /  0.0 mm
15:42 55.8 °F /  13.2 °C 45.3 °F /  7.4 °C 29.6 in /  1000.9 hPa SW 18 mph /  29.0 km/h 35 mph /  56.3 km/h 68 % 0 in /  0.0 mm
15:47 55.8 °F /  13.2 °C 45.3 °F /  7.4 °C 29.6 in /  1000.9 hPa SSW 15 mph /  24.1 km/h 35 mph /  56.3 km/h 68 % 0 in /  0.0 mm
15:52 55.6 °F /  13.1 °C 45.5 °F /  7.5 °C 29.6 in /  1000.9 hPa SW 20 mph /  32.2 km/h 34 mph /  54.7 km/h 69 % 0 in /  0.0 mm
15:57 55.6 °F /  13.1 °C 45.5 °F /  7.5 °C 29.6 in /  1000.9 hPa SW 18 mph /  29.0 km/h 34 mph /  54.7 km/h 69 % 0 in /  0.0 mm
16:02 55.6 °F /  13.1 °C 45.5 °F /  7.5 °C 29.6 in /  1000.9 hPa SW 12 mph /  19.3 km/h 33 mph /  53.1 km/h 69 % 0 in /  0.0 mm
16:12 55.2 °F /  12.9 °C 45.1 °F /  7.3 °C 29.6 in /  1000.6 hPa SSW 26 mph /  41.8 km/h 32 mph /  51.5 km/h 69 % 0 in /  0.0 mm
16:17 52 °F /  11.1 °C 46 °F /  7.8 °C 29.6 in /  1001.9 hPa NW 24 mph /  38.6 km/h 33 mph /  53.1 km/h 80 % 0.02 in /  0.5 mm
16:22 49.3 °F /  9.6 °C 45 °F /  7.2 °C 29.6 in /  1001.6 hPa WSW 20 mph /  32.2 km/h 44 mph /  70.8 km/h 85 % 0.02 in /  0.5 mm
16:32 48.7 °F /  9.3 °C 44.8 °F /  7.1 °C 29.6 in /  1001.6 hPa WSW 28 mph /  45.1 km/h 44 mph /  70.8 km/h 86 % 0.07 in /  1.8 mm
16:37 48.6 °F /  9.2 °C 44.8 °F /  7.1 °C 29.6 in /  1001.6 hPa WSW 13 mph /  20.9 km/h 38 mph /  61.1 km/h 87 % 0.07 in /  1.8 mm
16:42 48.6 °F /  9.2 °C 44.6 °F /  7.0 °C 29.6 in /  1001.2 hPa WSW 22 mph /  35.4 km/h 36 mph /  57.9 km/h 86 % 0.07 in /  1.8 mm
16:52 49.3 °F /  9.6 °C 44.1 °F /  6.7 °C 29.6 in /  1001.2 hPa SSW 13 mph /  20.9 km/h 35 mph /  56.3 km/h 82 % 0.08 in /  2.0 mm
16:57 49.5 °F /  9.7 °C 44.6 °F /  7.0 °C 29.6 in /  1000.9 hPa SW 11 mph /  17.7 km/h 31 mph /  49.9 km/h 83 % 0.08 in /  2.0 mm
17:02 49.8 °F /  9.9 °C 44.8 °F /  7.1 °C 29.6 in /  1000.9 hPa SW 14 mph /  22.5 km/h 31 mph /  49.9 km/h 83 % 0.08 in /  2.0 mm
17:12 50.2 °F /  10.1 °C 45.5 °F /  7.5 °C 29.6 in /  1000.9 hPa SW 17 mph /  27.4 km/h 27 mph /  43.4 km/h 84 % 0.08 in /  2.0 mm
17:17 50.2 °F /  10.1 °C 45.1 °F /  7.3 °C 29.6 in /  1000.9 hPa SSW 9 mph /  14.5 km/h 27 mph /  43.4 km/h 83 % 0.06 in /  1.5 mm
17:22 50.5 °F /  10.3 °C 45.3 °F /  7.4 °C 29.6 in /  1000.9 hPa SW 23 mph /  37.0 km/h 24 mph /  38.6 km/h 82 % 0.06 in /  1.5 mm
17:27 50.7 °F /  10.4 °C 45.1 °F /  7.3 °C 29.6 in /  1000.6 hPa WSW 23 mph /  37.0 km/h 27 mph /  43.4 km/h 81 % 0.01 in /  0.3 mm
17:32 50.7 °F /  10.4 °C 45.5 °F /  7.5 °C 29.6 in /  1000.6 hPa SW 15 mph /  24.1 km/h 27 mph /  43.4 km/h 82 % 0.01 in /  0.3 mm
17:37 50.7 °F /  10.4 °C 45.5 °F /  7.5 °C 29.6 in /  1000.9 hPa SW 15 mph /  24.1 km/h 30 mph /  48.3 km/h 82 % 0 in /  0.0 mm
17:42 50.9 °F /  10.5 °C 45.3 °F /  7.4 °C 29.6 in /  1000.6 hPa SW 13 mph /  20.9 km/h 30 mph /  48.3 km/h 81 % 0 in /  0.0 mm
17:47 50.7 °F /  10.4 °C 45.1 °F /  7.3 °C 29.6 in /  1000.6 hPa SSW 11 mph /  17.7 km/h 28 mph /  45.1 km/h 81 % 0 in /  0.0 mm
17:52 50.7 °F /  10.4 °C 44.8 °F /  7.1 °C 29.6 in /  1000.6 hPa SW 14 mph /  22.5 km/h 33 mph /  53.1 km/h 80 % 0 in /  0.0 mm
18:02 50.7 °F /  10.4 °C 44.8 °F /  7.1 °C 29.6 in /  1000.6 hPa West 8 mph /  12.9 km/h 33 mph /  53.1 km/h 80 % 0 in /  0.0 mm
18:12 50.7 °F /  10.4 °C 44.4 °F /  6.9 °C 29.5 in /  1000.2 hPa SW 14 mph /  22.5 km/h 30 mph /  48.3 km/h 79 % 0 in /  0.0 mm
18:17 50.7 °F /  10.4 °C 44.8 °F /  7.1 °C 29.5 in /  1000.2 hPa WSW 14 mph /  22.5 km/h 30 mph /  48.3 km/h 80 % 0 in /  0.0 mm
18:22 50.5 °F /  10.3 °C 44.6 °F /  7.0 °C 29.5 in /  1000.2 hPa SW 15 mph /  24.1 km/h 30 mph /  48.3 km/h 80 % 0 in /  0.0 mm
18:32 50.5 °F /  10.3 °C 44.6 °F /  7.0 °C 29.5 in /  1000.2 hPa SSW 10 mph /  16.1 km/h 22 mph /  35.4 km/h 80 % 0 in /  0.0 mm
18:37 50.5 °F /  10.3 °C 44.2 °F /  6.8 °C 29.5 in /  1000.2 hPa SW 17 mph /  27.4 km/h 27 mph /  43.4 km/h 79 % 0 in /  0.0 mm
18:42 50.7 °F /  10.4 °C 44.1 °F /  6.7 °C 29.5 in /  1000.2 hPa SW 13 mph /  20.9 km/h 27 mph /  43.4 km/h 78 % 0 in /  0.0 mm
18:52 50.5 °F /  10.3 °C 43.9 °F /  6.6 °C 29.5 in /  1000.2 hPa SW 18 mph /  29.0 km/h 27 mph /  43.4 km/h 78 % 0 in /  0.0 mm
18:57 50.7 °F /  10.4 °C 44.1 °F /  6.7 °C 29.6 in /  1000.6 hPa WSW 13 mph /  20.9 km/h 26 mph /  41.8 km/h 78 % 0 in /  0.0 mm
19:02 50.5 °F /  10.3 °C 44.2 °F /  6.8 °C 29.6 in /  1000.9 hPa WSW 18 mph /  29.0 km/h 24 mph /  38.6 km/h 79 % 0 in /  0.0 mm
19:12 49.8 °F /  9.9 °C 43.9 °F /  6.6 °C 29.6 in /  1000.9 hPa WSW 17 mph /  27.4 km/h 25 mph /  40.2 km/h 80 % 0 in /  0.0 mm
19:17 49.6 °F /  9.8 °C 44.1 °F /  6.7 °C 29.6 in /  1000.6 hPa SW 11 mph /  17.7 km/h 35 mph /  56.3 km/h 81 % 0 in /  0.0 mm
19:22 49.1 °F /  9.5 °C 43.9 °F /  6.6 °C 29.6 in /  1000.9 hPa SW 16 mph /  25.7 km/h 35 mph /  56.3 km/h 82 % 0 in /  0.0 mm
19:32 48.6 °F /  9.2 °C 43.7 °F /  6.5 °C 29.6 in /  1001.2 hPa West 13 mph /  20.9 km/h 26 mph /  41.8 km/h 83 % 0 in /  0.0 mm
19:37 47.8 °F /  8.8 °C 43.2 °F /  6.2 °C 29.6 in /  1000.9 hPa WSW 31 mph /  49.9 km/h 31 mph /  49.9 km/h 84 % 0.01 in /  0.3 mm
19:42 47.1 °F /  8.4 °C 42.8 °F /  6.0 °C 29.6 in /  1000.6 hPa WSW 10 mph /  16.1 km/h 31 mph /  49.9 km/h 85 % 0.01 in /  0.3 mm
19:47 46.9 °F /  8.3 °C 43 °F /  6.1 °C 29.6 in /  1000.6 hPa WSW 16 mph /  25.7 km/h 38 mph /  61.1 km/h 86 % 0.02 in /  0.5 mm
19:52 46.9 °F /  8.3 °C 43 °F /  6.1 °C 29.6 in /  1000.6 hPa SW 12 mph /  19.3 km/h 38 mph /  61.1 km/h 86 % 0.02 in /  0.5 mm
19:57 47.1 °F /  8.4 °C 42.8 °F /  6.0 °C 29.6 in /  1000.9 hPa West 10 mph /  16.1 km/h 28 mph /  45.1 km/h 85 % 0.02 in /  0.5 mm
20:02 47.1 °F /  8.4 °C 42.8 °F /  6.0 °C 29.6 in /  1000.9 hPa WSW 11 mph /  17.7 km/h 28 mph /  45.1 km/h 85 % 0.02 in /  0.5 mm
20:12 46.9 °F /  8.3 °C 43 °F /  6.1 °C 29.6 in /  1000.9 hPa SSW 9 mph /  14.5 km/h 25 mph /  40.2 km/h 86 % 0.02 in /  0.5 mm
20:22 46.4 °F /  8.0 °C 43.3 °F /  6.3 °C 29.6 in /  1000.9 hPa West 12 mph /  19.3 km/h 26 mph /  41.8 km/h 89 % 0.02 in /  0.5 mm
20:27 46.4 °F /  8.0 °C 43.3 °F /  6.3 °C 29.6 in /  1000.9 hPa WSW 13 mph /  20.9 km/h 22 mph /  35.4 km/h 89 % 0.03 in /  0.8 mm
20:32 46.2 °F /  7.9 °C 43.5 °F /  6.4 °C 29.6 in /  1000.9 hPa WSW 12 mph /  19.3 km/h 25 mph /  40.2 km/h 90 % 0.03 in /  0.8 mm
20:42 46 °F /  7.8 °C 43.5 °F /  6.4 °C 29.6 in /  1000.9 hPa SSW 12 mph /  19.3 km/h 25 mph /  40.2 km/h 91 % 0.04 in /  1.0 mm
20:47 46 °F /  7.8 °C 43.5 °F /  6.4 °C 29.6 in /  1000.9 hPa West 12 mph /  19.3 km/h 25 mph /  40.2 km/h 91 % 0.05 in /  1.3 mm
20:52 45.1 °F /  7.3 °C 41.7 °F /  5.4 °C 29.6 in /  1001.2 hPa West 14 mph /  22.5 km/h 25 mph /  40.2 km/h 88 % 0.05 in /  1.3 mm
20:57 44.4 °F /  6.9 °C 40.8 °F /  4.9 °C 29.6 in /  1001.2 hPa WSW 24 mph /  38.6 km/h 33 mph /  53.1 km/h 87 % 0.06 in /  1.5 mm
21:02 43.9 °F /  6.6 °C 40.6 °F /  4.8 °C 29.6 in /  1001.2 hPa WSW 19 mph /  30.6 km/h 33 mph /  53.1 km/h 88 % 0.06 in /  1.5 mm
21:12 43 °F /  6.1 °C 39.9 °F /  4.4 °C 29.6 in /  1001.2 hPa West 17 mph /  27.4 km/h 35 mph /  56.3 km/h 89 % 0.06 in /  1.5 mm
21:17 43 °F /  6.1 °C 40.3 °F /  4.6 °C 29.6 in /  1001.2 hPa West 10 mph /  16.1 km/h 32 mph /  51.5 km/h 90 % 0.07 in /  1.8 mm
21:22 42.8 °F /  6.0 °C 40.1 °F /  4.5 °C 29.6 in /  1001.2 hPa WSW 5 mph /  8.0 km/h 26 mph /  41.8 km/h 90 % 0.07 in /  1.8 mm
21:27 42.8 °F /  6.0 °C 40.1 °F /  4.5 °C 29.6 in /  1001.2 hPa West 9 mph /  14.5 km/h 23 mph /  37.0 km/h 90 % 0.06 in /  1.5 mm
21:32 42.8 °F /  6.0 °C 40.1 °F /  4.5 °C 29.6 in /  1001.2 hPa SW 13 mph /  20.9 km/h 22 mph /  35.4 km/h 90 % 0.06 in /  1.5 mm
21:42 42.6 °F /  5.9 °C 39.9 °F /  4.4 °C 29.6 in /  1001.6 hPa WSW 22 mph /  35.4 km/h 23 mph /  37.0 km/h 90 % 0.06 in /  1.5 mm
21:47 42.4 °F /  5.8 °C 39.7 °F /  4.3 °C 29.6 in /  1001.6 hPa West 13 mph /  20.9 km/h 27 mph /  43.4 km/h 90 % 0.06 in /  1.5 mm
21:52 42.4 °F /  5.8 °C 39.7 °F /  4.3 °C 29.6 in /  1001.6 hPa SW 7 mph /  11.3 km/h 27 mph /  43.4 km/h 90 % 0.06 in /  1.5 mm
21:57 42.3 °F /  5.7 °C 39.6 °F /  4.2 °C 29.6 in /  1001.9 hPa West 16 mph /  25.7 km/h 27 mph /  43.4 km/h 90 % 0.05 in /  1.3 mm
22:02 42.3 °F /  5.7 °C 39.6 °F /  4.2 °C 29.6 in /  1001.9 hPa West 10 mph /  16.1 km/h 24 mph /  38.6 km/h 90 % 0.05 in /  1.3 mm
22:07 42.3 °F /  5.7 °C 39.2 °F /  4.0 °C 29.6 in /  1001.9 hPa WSW 14 mph /  22.5 km/h 24 mph /  38.6 km/h 89 % 0.06 in /  1.5 mm
22:12 42.1 °F /  5.6 °C 39 °F /  3.9 °C 29.6 in /  1002.3 hPa West 18 mph /  29.0 km/h 24 mph /  38.6 km/h 89 % 0.06 in /  1.5 mm
22:17 42.1 °F /  5.6 °C 39.4 °F /  4.1 °C 29.6 in /  1001.9 hPa WSW 11 mph /  17.7 km/h 25 mph /  40.2 km/h 90 % 0.07 in /  1.8 mm
22:22 42.1 °F /  5.6 °C 39 °F /  3.9 °C 29.6 in /  1001.9 hPa SW 14 mph /  22.5 km/h 25 mph /  40.2 km/h 89 % 0.07 in /  1.8 mm
22:32 41.9 °F /  5.5 °C 38.8 °F /  3.8 °C 29.6 in /  1001.6 hPa SW 15 mph /  24.1 km/h 25 mph /  40.2 km/h 89 % 0.08 in /  2.0 mm
22:37 41.9 °F /  5.5 °C 38.8 °F /  3.8 °C 29.6 in /  1001.6 hPa SW 19 mph /  30.6 km/h 25 mph /  40.2 km/h 89 % 0.07 in /  1.8 mm
22:42 41.9 °F /  5.5 °C 38.8 °F /  3.8 °C 29.6 in /  1001.6 hPa SW 12 mph /  19.3 km/h 25 mph /  40.2 km/h 89 % 0.07 in /  1.8 mm
22:52 42.1 °F /  5.6 °C 38.8 °F /  3.8 °C 29.6 in /  1001.2 hPa SW 12 mph /  19.3 km/h 23 mph /  37.0 km/h 88 % 0.06 in /  1.5 mm
22:57 42.1 °F /  5.6 °C 38.8 °F /  3.8 °C 29.6 in /  1001.2 hPa SW 12 mph /  19.3 km/h 20 mph /  32.2 km/h 88 % 0.05 in /  1.3 mm
23:02 42.1 °F /  5.6 °C 38.5 °F /  3.6 °C 29.6 in /  1001.2 hPa WSW 13 mph /  20.9 km/h 21 mph /  33.8 km/h 87 % 0.05 in /  1.3 mm
23:12 42.1 °F /  5.6 °C 38.5 °F /  3.6 °C 29.6 in /  1001.2 hPa WSW 11 mph /  17.7 km/h 21 mph /  33.8 km/h 87 % 0.03 in /  0.8 mm
23:17 42.1 °F /  5.6 °C 38.5 °F /  3.6 °C 29.6 in /  1001.2 hPa SSW 10 mph /  16.1 km/h 21 mph /  33.8 km/h 87 % 0.01 in /  0.3 mm
23:22 42.3 °F /  5.7 °C 38.3 °F /  3.5 °C 29.6 in /  1001.2 hPa SW 10 mph /  16.1 km/h 21 mph /  33.8 km/h 86 % 0.01 in /  0.3 mm
23:27 42.3 °F /  5.7 °C 38.3 °F /  3.5 °C 29.6 in /  1000.9 hPa SW 13 mph /  20.9 km/h 19 mph /  30.6 km/h 86 % 0 in /  0.0 mm
23:32 42.3 °F /  5.7 °C 38.3 °F /  3.5 °C 29.6 in /  1000.9 hPa SW 16 mph /  25.7 km/h 19 mph /  30.6 km/h 86 % 0 in /  0.0 mm
23:37 42.3 °F /  5.7 °C 38.3 °F /  3.5 °C 29.6 in /  1001.2 hPa SSW 12 mph /  19.3 km/h 21 mph /  33.8 km/h 86 % 0 in /  0.0 mm
23:42 42.4 °F /  5.8 °C 38.3 °F /  3.5 °C 29.6 in /  1001.2 hPa SW 13 mph /  20.9 km/h 21 mph /  33.8 km/h 85 % 0 in /  0.0 mm
23:52 42.4 °F /  5.8 °C 38.3 °F /  3.5 °C 29.6 in /  1001.2 hPa SSW 10 mph /  16.1 km/h 20 mph /  32.2 km/h 85 % 0 in /  0.0 mm
23:57 42.4 °F /  5.8 °C 37.9 °F /  3.3 °C 29.6 in /  1000.9 hPa WSW 12 mph /  19.3 km/h 20 mph /  32.2 km/h 84 % 0 in /  0.0 mm
Meteo18
Compliments of Weather Underground - 4 mb

Script developed by  Jim McMurry - jmcmurry@mwt.net Adapted for the template by  Wim van der Kuil - Leuven-Template.eu

You find our weather info also at:

European Weather Network

Weather Underground

Equipment we use:

Weather-station
Davis Vue

Weather-program
Meteohub

Weather-server
Raspberry PI 2 B+

Provider
1 and 1

Davis Vue

Meteohub

Raspberry PI 2 B+

1 and 1